Time;durP1;ratioP1;P1;durP2;ratioP2;P2;SDS_P1;SDS_P2;PMS_P1;PMS_P2;Temp;Humidity;BMP_temperature;BMP_pressure;BME280_temperature;BME280_humidity;BME280_pressure;Samples;Min_cycle;Max_cycle;Signal;HPM_P1;HPM_P2
2022/06/13 00:00:59;;;;;;;6.50;5.90;;;24.60;99.90;;;;;;5087742;28;20443;-69
2022/06/13 00:03:24;;;;;;;14.97;5.50;;;24.60;99.90;;;;;;5088132;28;20269;-68
2022/06/13 00:05:50;;;;;;;10.70;6.03;;;24.50;99.90;;;;;;5087424;28;20197;-69
2022/06/13 00:08:15;;;;;;;9.93;5.77;;;24.50;99.90;;;;;;5087190;28;20173;-70
2022/06/13 00:10:41;;;;;;;6.30;5.57;;;24.40;99.90;;;;;;5087600;28;20270;-68
2022/06/13 00:13:07;;;;;;;12.80;6.37;;;24.30;99.90;;;;;;5088356;28;20212;-69
2022/06/13 00:15:33;;;;;;;6.20;5.60;;;24.30;99.90;;;;;;5087948;28;20197;-69
2022/06/13 00:17:59;;;;;;;9.33;5.30;;;;;;;;;;5079344;28;20180;-69
2022/06/13 00:20:25;;;;;;;7.30;4.73;;;;;;;;;;5087583;28;20427;-69
2022/06/13 00:22:51;;;;;;;5.93;5.23;;;;;;;;;;5088989;28;20574;-70
2022/06/13 00:25:17;;;;;;;5.60;3.70;;;;;;;;;;5091434;28;20462;-69
2022/06/13 00:27:43;;;;;;;3.57;2.87;;;;;;;;;;5074368;28;20408;-69
2022/06/13 00:30:10;;;;;;;3.87;2.57;;;;;;;;;;5071294;28;20427;-69
2022/06/13 00:32:36;;;;;;;2.90;2.00;;;;;;;;;;5071731;28;20407;-69
2022/06/13 00:35:03;;;;;;;2.60;1.90;;;;;;;;;;5071252;28;20432;-70
2022/06/13 00:37:29;;;;;;;8.73;3.40;;;;;;;;;;5071015;28;20792;-70
2022/06/13 00:39:55;;;;;;;4.07;3.07;;;;;;;;;;5070622;28;20814;-70
2022/06/13 00:42:22;;;;;;;7.63;2.20;;;;;;;;;;5071245;28;20401;-69
2022/06/13 00:45:03;;;;;;;6.13;2.30;;;;;;;;;;5071204;28;20952;-69
2022/06/13 00:47:29;;;;;;;9.13;2.73;;;;;;;;;;5070732;28;20892;-70
2022/06/13 00:49:55;;;;;;;8.40;2.83;;;;;;;;;;5070790;28;20407;-69
2022/06/13 00:52:26;;;;;;;4.30;3.10;;;;;;;;;;5070741;28;20472;-69
2022/06/13 00:54:52;;;;;;;8.23;2.37;;;;;;;;;;5070698;28;20409;-70
2022/06/13 00:57:20;;;;;;;4.30;2.43;;;;;;;;;;5070345;28;20435;-69
2022/06/13 00:59:47;;;;;;;5.03;2.57;;;;;;;;;;5070458;28;20412;-69
2022/06/13 01:02:13;;;;;;;4.00;2.33;;;23.10;1.00;;;;;;5069984;28;20431;-69
2022/06/13 01:04:40;;;;;;;4.47;2.70;;;23.10;1.00;;;;;;5071153;28;20452;-70
2022/06/13 01:07:08;;;;;;;5.40;2.60;;;23.00;1.00;;;;;;5069598;28;20419;-69
2022/06/13 01:12:20;;;;;;;16.50;2.80;;;;;;;;;;5071049;28;21020;-69
2022/06/13 01:14:51;;;;;;;9.63;2.67;;;;;;;;;;5076413;28;20771;-70
2022/06/13 01:17:47;;;;;;;6.80;2.50;;;;;;;;;;5090312;28;20414;-70
2022/06/13 01:20:18;;;;;;;5.30;2.53;;;23.00;99.90;;;;;;5087819;28;20881;-69
2022/06/13 01:23:06;;;;;;;3.20;2.07;;;22.90;99.90;;;;;;5089839;28;20557;-70
2022/06/13 01:25:38;;;;;;;3.70;2.67;;;;;;;;;;5090183;28;20451;-69
2022/06/13 01:28:25;;;;;;;4.63;2.07;;;22.70;99.90;;;;;;5090502;28;20488;-69
2022/06/13 01:31:08;;;;;;;2.90;2.20;;;22.60;99.90;;;;;;5090692;28;20424;-69
2022/06/13 01:33:57;;;;;;;3.43;1.90;;;22.60;99.90;;;;;;5090395;28;20416;-70
2022/06/13 01:36:43;;;;;;;5.10;2.30;;;22.50;99.90;;;;;;5090565;28;20416;-69
2022/06/13 01:39:34;;;;;;;7.23;2.63;;;22.50;99.90;;;;;;5088497;28;20419;-69
2022/06/13 01:42:04;;;;;;;5.33;2.30;;;22.50;1.00;;;;;;5086401;28;20851;-70
2022/06/13 01:45:00;;;;;;;3.87;2.30;;;22.60;1.00;;;;;;5089911;28;20443;-69
2022/06/13 01:47:35;;;;;;;4.60;2.20;;;;;;;;;;5089535;28;20474;-69
2022/06/13 01:50:05;;;;;;;5.17;2.70;;;22.50;99.90;;;;;;5089790;28;20454;-69
2022/06/13 01:53:04;;;;;;;3.10;2.33;;;22.50;99.90;;;;;;5089924;28;20466;-69
2022/06/13 01:55:39;;;;;;;2.67;2.30;;;22.40;99.90;;;;;;5090181;28;20411;-69
2022/06/13 01:58:33;;;;;;;3.23;2.13;;;22.40;99.90;;;;;;5090057;28;20483;-70
2022/06/13 02:01:16;;;;;;;4.17;2.17;;;22.50;99.90;;;;;;5089823;28;20482;-69
2022/06/13 02:03:47;;;;;;;4.03;2.30;;;22.40;99.90;;;;;;5089951;28;20495;-69
2022/06/13 02:06:42;;;;;;;9.00;2.93;;;22.40;99.90;;;;;;5089644;28;20431;-70
2022/06/13 02:09:14;;;;;;;8.67;2.70;;;22.40;99.90;;;;;;5088085;28;20416;-69
2022/06/13 02:11:52;;;;;;;4.67;2.90;;;22.40;99.90;;;;;;5089893;28;20434;-69
2022/06/13 02:14:25;;;;;;;4.40;2.70;;;22.20;99.90;;;;;;5089015;28;20400;-69
2022/06/13 02:17:21;;;;;;;5.17;3.03;;;22.20;99.90;;;;;;5088929;28;20403;-69
2022/06/13 02:19:53;;;;;;;5.93;2.87;;;22.20;99.90;;;;;;5069185;28;20431;-68
2022/06/13 02:22:42;;;;;;;3.40;2.60;;;22.20;99.90;;;;;;5068827;28;20424;-70
2022/06/13 02:25:23;;;;;;;2.60;2.37;;;22.20;99.90;;;;;;5069200;28;20452;-69
2022/06/13 02:27:58;;;;;;;8.03;2.93;;;22.20;99.90;;;;;;5086791;28;21126;-69
2022/06/13 02:30:33;;;;;;;15.80;3.40;;;22.10;99.90;;;;;;5089302;28;20438;-68
2022/06/13 02:33:12;;;;;;;13.20;2.97;;;22.20;99.90;;;;;;5089101;28;20765;-69
2022/06/13 02:35:49;;;;;;;8.90;3.00;;;22.20;99.90;;;;;;5089571;28;20400;-69
2022/06/13 02:38:26;;;;;;;4.73;2.50;;;22.10;99.90;;;;;;5088999;28;20387;-68
2022/06/13 02:41:00;;;;;;;7.33;2.97;;;22.10;99.90;;;;;;5088963;28;20419;-69
2022/06/13 02:43:28;;;;;;;10.20;3.00;;;22.10;99.90;;;;;;5088983;28;20456;-69
2022/06/13 02:46:05;;;;;;;5.73;3.63;;;22.10;99.90;;;;;;5088045;28;20467;-68
2022/06/13 02:48:38;;;;;;;7.70;3.10;;;22.10;99.90;;;;;;5088790;28;20395;-68
2022/06/13 02:51:26;;;;;;;25.70;4.47;;;22.10;1.00;;;;;;5088450;28;20473;-68
2022/06/13 02:54:08;;;;;;;11.80;3.63;;;22.10;1.00;;;;;;5089048;28;20747;-68
2022/06/13 02:59:51;;;;;;;11.37;4.00;;;22.00;1.00;;;;;;5088924;28;20509;-69
2022/06/13 03:02:41;;;;;;;6.80;3.50;;;21.90;1.00;;;;;;5088578;28;20396;-68
2022/06/13 03:05:44;;;;;;;15.70;3.60;;;21.90;1.00;;;;;;5087770;28;20589;-68
2022/06/13 03:08:19;;;;;;;7.60;2.70;;;21.90;1.00;;;;;;5087110;28;20930;-68
2022/06/13 03:11:04;;;;;;;6.60;3.40;;;21.90;1.00;;;;;;5088515;28;20783;-70
2022/06/13 03:13:45;;;;;;;4.47;2.90;;;21.80;1.00;;;;;;5088544;28;20498;-69
2022/06/13 03:16:26;;;;;;;12.70;4.77;;;21.80;1.00;;;;;;5087076;28;20412;-68
2022/06/13 03:19:00;;;;;;;16.33;3.67;;;21.80;1.00;;;;;;5083372;28;20433;-68
2022/06/13 03:21:36;;;;;;;9.97;3.13;;;21.80;1.00;;;;;;5088385;28;20750;-69
2022/06/13 03:24:17;;;;;;;12.07;3.47;;;21.80;1.00;;;;;;5088535;28;20989;-69
2022/06/13 03:26:50;;;;;;;3.20;2.90;;;21.90;1.00;;;;;;5079992;28;20499;-69
2022/06/13 03:29:45;;;;;;;4.83;3.33;;;21.70;1.00;;;;;;5068017;28;20928;-69
2022/06/13 03:32:31;;;;;;;7.10;3.20;;;21.80;1.00;;;;;;5067767;28;20782;-68
2022/06/13 03:35:01;;;;;;;4.50;2.80;;;21.70;1.00;;;;;;5068424;28;20419;-69
2022/06/13 03:37:31;;;;;;;15.87;3.73;;;;;;;;;;5067366;28;20411;-69
2022/06/13 03:40:16;;;;;;;9.13;3.50;;;;;;;;;;5067366;28;20389;-69
2022/06/13 03:42:45;;;;;;;11.90;3.03;;;;;;;;;;5067948;28;20752;-68
2022/06/13 03:45:17;;;;;;;33.67;5.50;;;;;;;;;;5068517;28;20537;-69
2022/06/13 03:47:53;;;;;;;24.43;4.53;;;21.80;99.90;;;;;;5067717;28;20815;-69
2022/06/13 03:50:31;;;;;;;8.77;4.00;;;21.80;99.90;;;;;;5068033;28;20515;-70
2022/06/13 03:53:39;;;;;;;24.07;5.10;;;21.70;1.00;;;;;;5068144;28;21045;-69
2022/06/13 03:56:12;;;;;;;9.67;3.30;;;21.60;1.00;;;;;;5068953;28;21328;-70
2022/06/13 03:58:51;;;;;;;7.37;3.30;;;;;;;;;;5071798;28;20455;-69
2022/06/13 04:01:20;;;;;;;3.47;3.17;;;;;;;;;;5070339;28;20456;-69
2022/06/13 04:03:46;;;;;;;5.57;3.03;;;;;;;;;;5071097;28;20412;-69
2022/06/13 04:06:33;;;;;;;8.23;2.90;;;21.60;1.00;;;;;;5072129;28;20408;-69
2022/06/13 04:09:01;;;;;;;27.03;5.33;;;21.60;1.00;;;;;;5071582;28;20737;-69
2022/06/13 04:11:42;;;;;;;15.70;4.90;;;;;;;;;;5071990;28;20412;-68
2022/06/13 04:14:08;;;;;;;40.50;6.80;;;;;;;;;;5072749;28;20904;-68
2022/06/13 04:16:53;;;;;;;16.13;4.77;;;;;;;;;;5092031;28;20449;-69
2022/06/13 04:19:19;;;;;;;14.40;3.80;;;;;;;;;;5091674;28;20181;-70
2022/06/13 04:22:03;;;;;;;4.83;3.57;;;;;;;;;;5091552;28;20419;-69
2022/06/13 04:24:38;;;;;;;5.90;3.00;;;;;;;;;;5091740;28;20447;-69
2022/06/13 04:27:15;;;;;;;3.80;2.90;;;21.50;1.00;;;;;;5091462;28;20411;-70
2022/06/13 04:29:54;;;;;;;9.63;3.97;;;21.50;1.00;;;;;;5091912;28;20382;-69
2022/06/13 04:32:24;;;;;;;25.13;6.20;;;21.60;1.00;;;;;;5091451;28;20439;-69
2022/06/13 04:34:52;;;;;;;8.33;3.57;;;21.50;1.00;;;;;;5089723;28;20451;-68
2022/06/13 04:37:21;;;;;;;15.77;3.83;;;21.50;1.00;;;;;;5088544;28;20451;-68
2022/06/13 04:39:50;;;;;;;7.77;4.10;;;21.60;1.00;;;;;;5090163;28;20420;-69
2022/06/13 04:42:20;;;;;;;21.73;5.73;;;21.50;1.00;;;;;;5090351;28;20529;-71
2022/06/13 04:44:47;;;;;;;4.30;3.87;;;;;;;;;;5090963;28;20493;-70
2022/06/13 04:47:15;;;;;;;10.67;3.80;;;;;;;;;;5089516;28;20511;-70
2022/06/13 04:49:49;;;;;;;4.57;3.70;;;;;;;;;;5089902;28;20443;-69
2022/06/13 04:52:21;;;;;;;7.90;4.13;;;;;;;;;;5075394;28;20442;-70
2022/06/13 04:54:52;;;;;;;15.67;3.17;;;;;;;;;;5086916;28;20420;-70
2022/06/13 04:57:19;;;;;;;9.50;3.63;;;;;;;;;;5094030;27;20459;-70
2022/06/13 04:59:45;;;;;;;24.37;4.70;;;;;;;;;;5089867;28;20468;-69
2022/06/13 05:02:13;;;;;;;16.17;3.90;;;;;;;;;;5086944;28;20489;-70
2022/06/13 05:04:39;;;;;;;7.30;3.90;;;;;;;;;;5085340;28;20483;-70
2022/06/13 05:07:08;;;;;;;11.87;4.10;;;;;;;;;;5082884;28;20975;-70
2022/06/13 05:09:40;;;;;;;12.10;3.90;;;;;;;;;;5086667;28;20414;-70
2022/06/13 05:12:11;;;;;;;16.67;4.30;;;21.60;1.00;;;;;;5086790;28;20420;-70
2022/06/13 05:14:44;;;;;;;13.73;4.47;;;21.60;1.00;;;;;;5086785;28;20416;-75
2022/06/13 05:17:34;;;;;;;23.10;5.10;;;21.60;1.00;;;;;;5086499;28;20450;-76
2022/06/13 05:20:17;;;;;;;10.50;5.30;;;21.50;1.00;;;;;;5084307;28;20480;-77
2022/06/13 05:23:13;;;;;;;8.10;4.07;;;21.60;1.00;;;;;;5080141;28;20435;-77
2022/06/13 05:25:53;;;;;;;96.13;10.93;;;21.50;1.00;;;;;;5086690;28;20458;-76
2022/06/13 05:28:21;;;;;;;16.67;4.87;;;21.50;1.00;;;;;;5085008;28;20407;-76
2022/06/13 05:30:50;;;;;;;13.00;4.20;;;21.50;1.00;;;;;;5080948;28;20493;-76
2022/06/13 05:33:20;;;;;;;4.33;3.60;;;21.50;1.00;;;;;;5087007;28;20765;-76
2022/06/13 05:35:52;;;;;;;18.27;4.33;;;21.50;1.00;;;;;;5082464;28;20404;-75
2022/06/13 05:38:23;;;;;;;9.30;4.00;;;21.50;1.00;;;;;;5085644;28;20778;-75
2022/06/13 05:40:49;;;;;;;18.87;5.10;;;21.50;1.00;;;;;;5083022;28;20460;-76
2022/06/13 05:43:16;;;;;;;14.67;5.40;;;21.40;1.00;;;;;;5087652;28;20496;-75
2022/06/13 05:45:42;;;;;;;17.87;4.77;;;21.40;1.00;;;;;;5087930;28;20505;-75
2022/06/13 05:48:14;;;;;;;14.67;4.90;;;21.40;1.00;;;;;;5085556;28;20412;-74
2022/06/13 05:50:41;;;;;;;7.00;4.70;;;21.40;1.00;;;;;;5077226;28;20779;-76
2022/06/13 05:53:13;;;;;;;19.87;5.30;;;21.30;1.00;;;;;;5086827;28;20412;-79
2022/06/13 05:55:40;;;;;;;29.73;6.33;;;21.40;1.00;;;;;;5085699;28;20416;-76
2022/06/13 05:58:06;;;;;;;31.27;6.43;;;21.50;1.00;;;;;;5086348;28;20486;-75
2022/06/13 06:00:38;;;;;;;17.43;4.67;;;21.50;1.00;;;;;;5086655;28;20447;-76
2022/06/13 06:03:04;;;;;;;19.00;4.27;;;21.50;1.00;;;;;;5087193;28;20165;-76
2022/06/13 06:05:30;;;;;;;15.07;4.50;;;21.60;1.00;;;;;;5087294;28;20917;-77
2022/06/13 06:07:56;;;;;;;15.13;4.13;;;21.60;1.00;;;;;;5086578;28;20439;-77
2022/06/13 06:10:29;;;;;;;18.33;5.10;;;21.60;1.00;;;;;;5085765;28;20201;-76
2022/06/13 06:12:55;;;;;;;5.33;4.00;;;21.60;1.00;;;;;;5079704;28;20429;-77
2022/06/13 06:15:21;;;;;;;12.47;4.77;;;21.60;1.00;;;;;;5085941;28;20759;-76
2022/06/13 06:17:47;;;;;;;42.90;6.33;;;;;;;;;;5085763;28;20193;-76
2022/06/13 06:20:16;;;;;;;12.93;5.40;;;;;;;;;;5086071;28;20479;-76
2022/06/13 06:22:42;;;;;;;4.83;4.27;;;;;;;;;;5085119;28;20512;-78
2022/06/13 06:25:09;;;;;;;4.77;3.90;;;;;;;;;;5086425;28;20470;-75
2022/06/13 06:27:35;;;;;;;6.70;4.30;;;;;;;;;;5086269;28;20485;-77
2022/06/13 06:30:00;;;;;;;24.17;6.00;;;22.00;1.00;;;;;;5086647;28;20420;-76
2022/06/13 06:32:26;;;;;;;9.53;4.50;;;22.00;1.00;;;;;;5086072;28;20547;-75
2022/06/13 06:34:52;;;;;;;23.87;5.10;;;21.90;1.00;;;;;;5085486;28;20177;-75
2022/06/13 06:37:18;;;;;;;9.10;4.93;;;21.80;1.00;;;;;;5086015;28;20840;-75
2022/06/13 06:39:44;;;;;;;8.50;4.73;;;21.70;1.00;;;;;;5085378;28;20656;-74
2022/06/13 06:42:09;;;;;;;18.57;5.37;;;21.70;1.00;;;;;;5087349;28;20221;-78
2022/06/13 06:44:35;;;;;;;13.20;5.63;;;;;;;;;;5086747;28;20202;-77
2022/06/13 06:47:01;;;;;;;13.27;5.70;;;;;;;;;;5086372;28;20184;-77
2022/06/13 06:49:27;;;;;;;12.30;4.50;;;21.70;1.00;;;;;;5086770;28;20483;-77
2022/06/13 06:51:53;;;;;;;7.73;4.60;;;;;;;;;;5078098;28;20515;-78
2022/06/13 06:59:53;;;;;;;14.23;4.90;;;22.00;1.00;;;;;;5089045;28;20407;-77
2022/06/13 07:02:23;;;;;;;12.70;4.87;;;22.20;1.00;;;;;;5083663;28;20566;-78
2022/06/13 07:04:54;;;;;;;7.07;3.43;;;22.20;99.90;;;;;;5083629;28;21005;-76
2022/06/13 07:07:20;;;;;;;10.80;4.23;;;;;;;;;;5087239;28;20443;-76
2022/06/13 07:09:47;;;;;;;6.60;3.50;;;22.50;1.00;;;;;;5084303;28;20412;-76
2022/06/13 07:12:13;;;;;;;8.50;4.03;;;22.80;99.90;;;;;;5088113;28;20841;-76
2022/06/13 07:14:39;;;;;;;11.43;4.20;;;23.00;99.90;;;;;;5088080;28;20423;-76
2022/06/13 07:17:07;;;;;;;5.33;3.47;;;23.20;99.90;;;;;;5086449;28;20934;-76
2022/06/13 07:19:33;;;;;;;6.20;3.10;;;23.50;99.90;;;;;;5088029;28;20472;-76
2022/06/13 07:21:59;;;;;;;9.30;4.03;;;23.40;1.00;;;;;;5088002;28;20443;-76
2022/06/13 07:24:25;;;;;;;12.80;5.90;;;23.30;99.90;;;;;;5087837;28;20203;-76
2022/06/13 07:26:51;;;;;;;10.97;3.83;;;23.30;99.90;;;;;;5087840;28;20455;-76
2022/06/13 07:29:17;;;;;;;6.47;3.13;;;23.50;99.90;;;;;;5087877;28;20453;-76
2022/06/13 07:31:47;;;;;;;12.37;3.97;;;23.60;99.90;;;;;;5087467;28;20431;-76
2022/06/13 07:34:17;;;;;;;12.83;3.63;;;23.90;99.90;;;;;;5087880;28;20547;-76
2022/06/13 07:36:43;;;;;;;5.57;3.30;;;24.20;99.90;;;;;;5086619;28;20423;-76
2022/06/13 07:39:10;;;;;;;8.23;3.47;;;24.30;99.90;;;;;;5086726;28;20430;-76
2022/06/13 07:41:36;;;;;;;11.50;3.70;;;24.40;99.90;;;;;;5088310;28;20849;-76
2022/06/13 07:44:03;;;;;;;7.83;3.60;;;24.60;99.90;;;;;;5087620;28;20472;-76
2022/06/13 07:46:30;;;;;;;9.77;4.50;;;24.80;99.90;;;;;;5087493;28;20451;-76
2022/06/13 07:48:56;;;;;;;7.83;2.57;;;25.00;99.90;;;;;;5087117;28;20417;-76
2022/06/13 07:51:23;;;;;;;9.80;3.70;;;25.10;99.90;;;;;;5087033;28;20434;-76
2022/06/13 07:53:49;;;;;;;6.07;3.03;;;25.30;99.90;;;;;;5087016;28;20177;-75
2022/06/13 07:56:20;;;;;;;12.60;3.47;;;25.40;99.90;;;;;;5087318;28;20526;-76
2022/06/13 07:58:49;;;;;;;14.13;3.67;;;25.50;99.90;;;;;;5086594;28;20292;-75
2022/06/13 08:01:16;;;;;;;7.13;3.37;;;25.50;99.90;;;;;;5086921;28;20196;-75
2022/06/13 08:03:41;;;;;;;6.83;3.70;;;25.50;99.90;;;;;;5082714;28;20165;-75
2022/06/13 08:06:08;;;;;;;21.47;4.17;;;25.60;99.90;;;;;;5087380;28;20407;-75
2022/06/13 08:08:37;;;;;;;15.47;4.10;;;25.70;99.90;;;;;;5086349;28;20938;-75
2022/06/13 08:11:06;;;;;;;10.50;4.23;;;25.80;99.90;;;;;;5085626;28;20201;-76
2022/06/13 08:13:33;;;;;;;10.30;3.47;;;26.00;96.30;;;;;;5087720;28;20173;-76
2022/06/13 08:15:58;;;;;;;7.23;3.00;;;26.10;93.60;;;;;;5086651;28;20177;-76
2022/06/13 08:18:24;;;;;;;7.17;4.10;;;26.00;99.90;;;;;;5086874;28;20177;-76
2022/06/13 08:20:50;;;;;;;5.33;3.10;;;26.00;91.90;;;;;;5087178;28;20197;-75
2022/06/13 08:23:18;;;;;;;8.80;2.80;;;26.20;90.50;;;;;;5087641;28;20181;-76
2022/06/13 08:25:44;;;;;;;8.77;3.00;;;26.30;84.40;;;;;;5086630;28;20185;-75
2022/06/13 08:28:11;;;;;;;4.30;3.40;;;26.20;81.90;;;;;;5081638;28;20265;-75
2022/06/13 08:30:51;;;;;;;7.30;3.20;;;26.10;77.90;;;;;;5083205;28;20185;-75
2022/06/13 08:33:18;;;;;;;8.07;3.60;;;26.30;95.80;;;;;;5087165;28;20149;-75
2022/06/13 08:35:44;;;;;;;12.93;4.37;;;26.30;71.60;;;;;;5085811;28;20251;-75
2022/06/13 08:38:10;;;;;;;10.40;3.53;;;26.40;70.10;;;;;;5085779;28;20650;-76
2022/06/13 08:41:01;;;;;;;5.83;3.13;;;26.60;67.00;;;;;;5087340;28;20200;-76
2022/06/13 08:43:39;;;;;;;7.23;3.33;;;26.60;62.90;;;;;;5082902;28;20231;-76
2022/06/13 08:46:50;;;;;;;6.27;2.80;;;26.70;60.10;;;;;;5090784;28;20998;-76
2022/06/13 08:49:35;;;;;;;13.90;4.83;;;26.80;58.00;;;;;;5031006;28;20186;-76
2022/06/13 08:52:35;;;;;;;15.87;3.13;;;26.90;57.70;;;;;;5043540;28;20186;-76
2022/06/13 08:55:36;;;;;;;11.90;3.33;;;27.00;53.90;;;;;;5081358;28;20641;-76
2022/06/13 08:58:37;;;;;;;7.20;3.33;;;27.20;51.60;;;;;;5079661;28;20652;-76
2022/06/13 09:01:27;;;;;;;7.18;3.38;;;27.30;50.40;;;;;;5086325;28;20196;-76
2022/06/13 09:04:15;;;;;;;10.27;2.85;;;27.30;53.10;;;;;;5090187;28;20173;-76
2022/06/13 09:07:01;;;;;;;9.88;3.22;;;27.10;46.20;;;;;;5086048;28;20238;-76
2022/06/13 09:09:37;;;;;;;6.97;2.78;;;27.10;99.90;;;;;;5086410;28;20303;-76
2022/06/13 09:12:08;;;;;;;7.00;2.70;;;27.40;41.20;;;;;;5090484;28;20565;-76
2022/06/13 09:14:33;;;;;;;51.00;7.07;;;27.30;39.70;;;;;;5088831;28;20181;-76
2022/06/13 09:17:23;;;;;;;6.70;3.30;;;27.30;37.80;;;;;;5089647;28;20237;-76
2022/06/13 09:20:10;;;;;;;11.77;3.90;;;27.30;36.20;;;;;;5090120;28;20544;-76
2022/06/13 09:23:11;;;;;;;11.07;3.43;;;27.50;34.10;;;;;;5090669;28;20261;-76
2022/06/13 09:25:46;;;;;;;6.87;3.10;;;27.60;33.50;;;;;;5089260;28;20208;-76
2022/06/13 09:28:19;;;;;;;7.93;3.73;;;27.60;30.60;;;;;;5090282;28;20152;-76
2022/06/13 09:30:53;;;;;;;7.40;3.10;;;27.50;29.40;;;;;;5090901;28;20181;-76
2022/06/13 09:33:27;;;;;;;62.73;8.10;;;27.40;28.80;;;;;;5093615;28;20574;-78
2022/06/13 09:36:16;;;;;;;16.87;5.10;;;27.40;28.00;;;;;;5095419;28;20186;-78
2022/06/13 09:38:48;;;;;;;6.00;3.20;;;27.40;27.00;;;;;;5092843;28;20484;-78
2022/06/13 09:41:32;;;;;;;23.93;4.40;;;27.30;25.80;;;;;;5094722;28;20525;-78
2022/06/13 09:44:21;;;;;;;16.80;4.70;;;27.40;25.60;;;;;;5094484;28;20443;-78
2022/06/13 09:46:53;;;;;;;40.83;6.40;;;27.50;25.70;;;;;;5090218;28;20403;-78
2022/06/13 09:49:37;;;;;;;67.27;9.07;;;27.60;26.20;;;;;;5093686;28;20173;-78
2022/06/13 09:52:15;;;;;;;26.20;5.90;;;27.80;25.10;;;;;;5092020;28;20214;-78
2022/06/13 09:54:53;;;;;;;13.63;4.10;;;27.90;23.80;;;;;;5090691;28;20183;-77
2022/06/13 09:57:27;;;;;;;28.27;6.57;;;28.10;22.00;;;;;;5093799;28;20180;-78
2022/06/13 10:00:20;;;;;;;25.73;4.93;;;27.90;20.30;;;;;;5094214;28;20165;-78
2022/06/13 10:02:45;;;;;;;10.43;4.17;;;27.90;18.40;;;;;;5093633;28;20166;-78
2022/06/13 10:05:19;;;;;;;8.40;4.00;;;27.90;16.50;;;;;;5094467;28;20766;-78
2022/06/13 10:07:56;;;;;;;31.03;6.63;;;28.00;16.10;;;;;;5088829;28;20627;-78
2022/06/13 10:10:37;;;;;;;31.37;5.67;;;28.00;15.30;;;;;;5087728;28;20181;-77
2022/06/13 10:13:31;;;;;;;18.67;3.60;;;27.90;14.10;;;;;;5088944;28;20230;-77
2022/06/13 10:16:24;;;;;;;10.77;3.17;;;27.90;13.00;;;;;;5089077;28;20173;-77
2022/06/13 10:19:17;;;;;;;21.03;3.70;;;27.90;11.20;;;;;;5085082;28;20169;-77
2022/06/13 10:22:03;;;;;;;21.70;5.10;;;27.70;9.60;;;;;;5084740;28;20200;-77
2022/06/13 10:24:37;;;;;;;13.83;3.97;;;27.40;8.40;;;;;;5082336;28;20447;-77
2022/06/13 10:27:11;;;;;;;14.83;3.70;;;27.30;7.30;;;;;;5088611;28;20495;-76
2022/06/13 10:30:20;;;;;;;12.00;3.73;;;27.30;7.30;;;;;;5089181;28;20411;-75
2022/06/13 10:32:52;;;;;;;7.03;2.80;;;27.30;5.60;;;;;;5069027;28;20446;-75
2022/06/13 10:35:43;;;;;;;13.77;3.80;;;27.30;3.60;;;;;;5080823;28;20425;-76
2022/06/13 10:38:24;;;;;;;4.70;3.03;;;27.30;2.70;;;;;;5088851;28;20766;-75
2022/06/13 10:40:50;;;;;;;6.53;2.97;;;27.30;1.00;;;;;;5080272;28;20803;-76
2022/06/13 10:43:16;;;;;;;6.13;3.57;;;27.30;1.00;;;;;;5089960;28;20899;-76
2022/06/13 10:45:42;;;;;;;15.57;3.73;;;27.20;1.00;;;;;;5090306;28;20439;-76
2022/06/13 10:48:23;;;;;;;7.40;3.00;;;27.10;1.00;;;;;;5087955;28;20169;-76
2022/06/13 10:50:59;;;;;;;26.30;4.07;;;27.10;1.00;;;;;;5086379;28;20947;-76
2022/06/13 10:53:27;;;;;;;9.67;3.63;;;27.20;1.00;;;;;;5079288;28;20399;-76
2022/06/13 10:55:57;;;;;;;18.67;3.90;;;27.20;1.00;;;;;;5089617;28;20823;-76
2022/06/13 10:58:32;;;;;;;6.40;3.03;;;27.10;1.00;;;;;;5088652;28;20941;-76
2022/06/13 11:01:07;;;;;;;12.37;3.93;;;27.10;1.00;;;;;;5087766;28;20446;-76
2022/06/13 11:03:33;;;;;;;19.70;4.10;;;27.20;1.00;;;;;;5084725;28;20442;-76
2022/06/13 11:06:18;;;;;;;29.30;5.23;;;27.10;1.00;;;;;;5087446;28;20454;-76
2022/06/13 11:08:44;;;;;;;14.37;3.60;;;27.20;1.00;;;;;;5083478;28;20425;-76
2022/06/13 11:11:16;;;;;;;10.63;3.53;;;27.20;1.00;;;;;;5087985;28;20513;-76
2022/06/13 11:13:50;;;;;;;7.80;3.60;;;27.00;1.00;;;;;;5088242;28;20173;-76
2022/06/13 11:22:37;;;;;;;25.63;5.17;;;26.90;1.00;;;;;;5086087;28;20468;-77
2022/06/13 11:25:20;;;;;;;24.87;3.97;;;26.90;1.00;;;;;;5084200;28;20455;-77
2022/06/13 11:28:01;;;;;;;11.63;3.80;;;26.90;1.00;;;;;;5083973;28;20430;-77
2022/06/13 11:30:29;;;;;;;9.70;3.40;;;26.70;1.00;;;;;;5081851;28;20462;-76
2022/06/13 11:32:59;;;;;;;5.47;3.10;;;26.70;1.00;;;;;;5087053;28;20772;-76
2022/06/13 11:35:33;;;;;;;18.30;3.80;;;26.60;1.00;;;;;;5086576;28;20777;-76
2022/06/13 11:38:27;;;;;;;20.70;4.90;;;26.60;1.00;;;;;;5085890;28;20415;-76
2022/06/13 11:41:19;;;;;;;35.10;4.77;;;26.70;1.00;;;;;;5086828;28;20438;-76
2022/06/13 11:44:07;;;;;;;18.30;4.10;;;26.80;1.00;;;;;;5083542;28;20436;-76
2022/06/13 11:46:57;;;;;;;22.00;4.93;;;26.60;1.00;;;;;;5082723;28;20399;-76
2022/06/13 11:49:32;;;;;;;10.30;3.63;;;26.50;1.00;;;;;;5087734;28;20462;-76
2022/06/13 11:52:05;;;;;;;6.10;2.77;;;26.40;1.00;;;;;;5087583;28;20462;-76
2022/06/13 11:54:39;;;;;;;10.53;3.13;;;26.50;1.00;;;;;;5087629;28;20460;-76
2022/06/13 11:57:14;;;;;;;6.37;3.13;;;26.50;1.00;;;;;;5087474;28;20410;-76
2022/06/13 12:00:04;;;;;;;12.93;3.23;;;26.30;1.00;;;;;;5084561;28;20413;-76
2022/06/13 12:02:39;;;;;;;6.27;3.70;;;26.20;1.00;;;;;;5084378;28;20522;-76
2022/06/13 12:05:23;;;;;;;39.53;5.27;;;26.10;1.00;;;;;;5087527;28;20472;-76
2022/06/13 12:07:54;;;;;;;11.13;3.00;;;26.20;1.00;;;;;;5082981;28;20418;-75
2022/06/13 12:10:25;;;;;;;8.20;3.47;;;26.20;1.00;;;;;;5087120;28;20458;-76
2022/06/13 12:12:51;;;;;;;6.10;2.77;;;26.20;1.00;;;;;;5088439;28;20458;-76
2022/06/13 12:15:17;;;;;;;9.30;2.67;;;26.10;1.00;;;;;;5087699;28;21989;-76
2022/06/13 12:18:00;;;;;;;14.20;3.73;;;26.10;1.00;;;;;;5088386;28;20415;-76
2022/06/13 12:20:55;;;;;;;13.63;3.07;;;26.10;1.00;;;;;;5091538;28;20561;-76
2022/06/13 12:23:35;;;;;;;21.23;3.53;;;26.00;1.00;;;;;;5091676;28;20466;-76
2022/06/13 12:26:04;;;;;;;24.93;6.30;;;26.00;1.00;;;;;;5091417;28;20503;-76
2022/06/13 12:29:04;;;;;;;14.53;3.90;;;25.90;1.00;;;;;;5090745;28;20423;-76
2022/06/13 12:31:37;;;;;;;39.67;5.33;;;25.80;1.00;;;;;;5088930;28;20595;-76
2022/06/13 12:34:17;;;;;;;8.63;3.60;;;25.80;1.00;;;;;;5091108;28;20472;-76
2022/06/13 12:36:52;;;;;;;8.27;3.17;;;25.80;1.00;;;;;;5090404;28;20406;-76
2022/06/13 12:39:40;;;;;;;20.80;3.30;;;25.80;1.00;;;;;;5089953;28;20411;-76
2022/06/13 12:42:24;;;;;;;8.17;3.00;;;25.80;1.00;;;;;;5090573;28;20431;-76
2022/06/13 12:45:03;;;;;;;22.27;4.83;;;25.70;1.00;;;;;;5082096;28;20539;-77
2022/06/13 12:47:44;;;;;;;10.80;3.33;;;25.80;1.00;;;;;;5089368;28;20404;-77
2022/06/13 12:50:40;;;;;;;9.10;3.67;;;25.70;1.00;;;;;;5090780;28;20407;-77
2022/06/13 12:53:24;;;;;;;18.50;4.17;;;25.70;1.00;;;;;;5088387;28;20400;-77
2022/06/13 12:56:02;;;;;;;8.73;3.00;;;25.60;1.00;;;;;;5087991;28;20418;-77
2022/06/13 12:58:55;;;;;;;7.27;2.67;;;25.60;1.00;;;;;;5089161;28;20419;-76
2022/06/13 13:01:25;;;;;;;8.47;2.60;;;25.60;1.00;;;;;;5090539;28;20529;-75
2022/06/13 13:04:25;;;;;;;11.53;3.10;;;25.60;1.00;;;;;;5090649;28;20871;-76
2022/06/13 13:07:24;;;;;;;13.20;2.80;;;25.60;1.00;;;;;;5086149;28;20539;-76
2022/06/13 13:10:19;;;;;;;12.03;3.20;;;25.60;1.00;;;;;;5090240;28;20412;-77
2022/06/13 13:13:06;;;;;;;10.70;2.90;;;25.50;1.00;;;;;;5068112;28;20528;-77
2022/06/13 13:15:51;;;;;;;17.27;5.67;;;25.40;1.00;;;;;;5089373;28;20439;-75
2022/06/13 13:18:17;;;;;;;21.87;4.27;;;25.50;1.00;;;;;;5089533;28;20404;-74
2022/06/13 13:21:25;;;;;;;19.73;3.90;;;25.50;1.00;;;;;;5090662;28;20438;-76
2022/06/13 13:24:29;;;;;;;25.50;4.80;;;25.60;1.00;;;;;;5067148;28;20770;-75
2022/06/13 13:27:09;;;;;;;16.53;3.10;;;25.70;1.00;;;;;;5086068;28;20417;-75
2022/06/13 13:30:16;;;;;;;11.00;3.20;;;25.60;1.00;;;;;;5088815;28;20456;-76
2022/06/13 13:32:44;;;;;;;11.60;3.83;;;25.60;1.00;;;;;;5089209;28;20755;-76
2022/06/13 13:35:21;;;;;;;13.67;3.90;;;25.60;1.00;;;;;;5082526;22;21018;-75
2022/06/13 13:38:03;;;;;;;16.27;3.80;;;25.50;1.00;;;;;;5046860;28;20446;-75
2022/06/13 13:41:12;;;;;;;5.77;2.87;;;25.50;1.00;;;;;;5036267;28;20492;-75
2022/06/13 13:43:59;;;;;;;19.67;3.93;;;25.50;1.00;;;;;;4946857;29;20430;-73
2022/06/13 13:46:42;;;;;;;23.80;4.50;;;25.50;1.00;;;;;;4926249;29;20427;-74
2022/06/13 13:49:22;;;;;;;10.63;4.13;;;25.60;1.00;;;;;;4926694;29;20562;-75
2022/06/13 13:52:14;;;;;;;22.90;4.17;;;25.60;1.00;;;;;;4910800;29;20428;-75
2022/06/13 13:54:45;;;;;;;7.17;2.80;;;25.60;1.00;;;;;;4927471;29;20562;-75
2022/06/13 13:57:23;;;;;;;12.20;3.70;;;25.50;1.00;;;;;;4926925;29;20430;-74
2022/06/13 13:59:52;;;;;;;37.00;5.63;;;25.50;1.00;;;;;;4923998;29;20958;-75
2022/06/13 14:02:24;;;;;;;9.77;3.93;;;25.50;1.00;;;;;;4914949;29;20470;-75
2022/06/13 14:04:50;;;;;;;14.27;3.90;;;25.50;1.00;;;;;;4920131;29;20463;-75
2022/06/13 14:08:02;;;;;;;30.00;5.10;;;25.50;1.00;;;;;;4925626;29;20450;-75